createdAt,value
2023-01-21T00:01:49.046Z,99791.50
2023-01-21T00:04:38.134Z,99793.16
2023-01-21T00:07:26.194Z,99788.84
2023-01-21T00:10:15.177Z,99784.69
2023-01-21T00:13:02.432Z,99783.84
2023-01-21T00:15:50.058Z,99792.16
2023-01-21T00:18:37.369Z,99793.03
2023-01-21T00:21:24.547Z,99798.91
2023-01-21T00:24:11.867Z,99803.13
2023-01-21T00:27:00.612Z,99803.97
2023-01-21T00:29:47.975Z,99808.13
2023-01-21T00:32:35.009Z,99801.44
2023-01-21T00:35:22.165Z,99806.50
2023-01-21T00:38:09.300Z,99809.91
2023-01-21T00:41:02.096Z,99808.19
2023-01-21T00:43:50.554Z,99820.03
2023-01-21T00:46:37.926Z,99816.63
2023-01-21T00:49:24.969Z,99831.78
2023-01-21T00:52:12.137Z,99835.19
2023-01-21T00:54:59.145Z,99834.31
2023-01-21T00:57:46.406Z,99838.53
2023-01-21T01:00:35.350Z,99838.53
2023-01-21T01:03:24.658Z,99838.53
2023-01-21T01:06:14.111Z,99851.13
2023-01-21T01:09:01.477Z,99852.03
2023-01-21T01:11:48.857Z,99853.75
2023-01-21T01:14:36.051Z,99860.53
2023-01-21T01:17:24.582Z,99862.25
2023-01-21T01:20:13.316Z,99867.31
2023-01-21T01:23:00.413Z,99866.47
2023-01-21T01:25:56.819Z,99870.72
2023-01-21T01:28:44.733Z,99880.84
2023-01-21T01:31:32.431Z,99874.13
2023-01-21T01:34:21.029Z,99880.00
2023-01-21T01:37:08.166Z,99886.78
2023-01-21T01:39:55.582Z,99884.25
2023-01-21T01:42:42.614Z,99879.19
2023-01-21T01:45:29.595Z,99891.88
2023-01-21T01:48:21.395Z,99893.59
2023-01-21T01:51:10.775Z,99887.66
2023-01-21T01:53:57.930Z,99894.41
2023-01-21T01:56:48.238Z,99896.94
2023-01-21T01:59:36.359Z,99904.53
2023-01-21T02:02:23.789Z,99909.59
2023-01-21T02:05:12.601Z,99916.44
2023-01-21T02:08:01.960Z,99914.78
2023-01-21T02:10:49.436Z,99916.47
2023-01-21T02:13:36.469Z,99922.44
2023-01-21T02:16:59.507Z,99921.59
2023-01-21T02:20:29.787Z,99929.31
2023-01-21T02:23:25.978Z,99933.59
2023-01-21T02:26:49.796Z,99928.66
2023-01-21T02:30:23.661Z,99938.09
2023-01-21T02:33:44.870Z,99935.56
2023-01-21T02:36:43.926Z,99950.03
2023-01-21T02:39:50.117Z,99950.88
2023-01-21T02:42:46.400Z,99952.66
2023-01-21T02:45:42.493Z,99952.66
2023-01-21T02:48:36.298Z,99958.53
2023-01-21T02:51:25.381Z,99960.25
2023-01-21T02:54:18.030Z,99961.13
2023-01-21T02:57:06.391Z,99962.00
2023-01-21T02:59:56.548Z,99964.53
2023-01-21T03:03:24.046Z,99966.31
2023-01-21T03:06:34.859Z,99970.53
2023-01-21T03:09:25.579Z,99973.94
2023-01-21T03:12:32.573Z,99971.47
2023-01-21T03:15:44.343Z,99968.94
2023-01-21T03:18:37.538Z,99971.50
2023-01-21T03:21:29.138Z,99974.06
2023-01-21T03:24:17.040Z,99980.84
2023-01-21T03:27:06.575Z,99991.84
2023-01-21T03:29:58.826Z,99985.94
2023-01-21T03:32:51.084Z,99978.41
2023-01-21T03:35:42.797Z,99988.53
2023-01-21T03:38:38.009Z,99984.34
2023-01-21T03:41:32.185Z,99991.94
2023-01-21T03:44:19.557Z,99988.63
2023-01-21T03:47:20.063Z,100000.41
2023-01-21T03:50:11.014Z,100003.00
2023-01-21T03:52:58.410Z,100005.63
2023-01-21T03:55:47.189Z,100008.13
2023-01-21T03:58:34.547Z,100010.66
2023-01-21T04:01:21.704Z,100014.91
2023-01-21T04:04:09.857Z,100015.78
2023-01-21T04:06:56.717Z,100017.50
2023-01-21T04:09:43.911Z,100018.44
2023-01-21T04:12:33.479Z,100027.75
2023-01-21T04:15:21.134Z,100022.72
2023-01-21T04:18:08.399Z,100031.19
2023-01-21T04:20:55.864Z,100027.00
2023-01-21T04:23:43.409Z,100027.94
2023-01-21T04:26:30.533Z,100025.50
2023-01-21T04:29:19.177Z,100021.34
2023-01-21T04:32:06.719Z,100029.81
2023-01-21T04:34:54.153Z,100045.06
2023-01-21T04:37:41.434Z,100048.50
2023-01-21T04:40:28.497Z,100054.50
2023-01-21T04:43:15.687Z,100052.88
2023-01-21T04:46:04.389Z,100054.66
2023-01-21T04:48:51.565Z,100047.97
2023-01-21T04:51:38.602Z,100059.88
2023-01-21T04:54:25.864Z,100059.88
2023-01-21T04:57:13.337Z,100055.72
2023-01-21T05:00:00.404Z,100055.78
2023-01-21T05:02:48.954Z,100064.28
2023-01-21T05:05:36.327Z,100071.91
2023-01-21T05:08:23.301Z,100075.34
2023-01-21T05:11:10.896Z,100072.88
2023-01-21T05:13:58.213Z,100071.25
2023-01-21T05:16:45.145Z,100073.78
2023-01-21T05:19:33.451Z,100078.09
2023-01-21T05:22:20.951Z,100064.63
2023-01-21T05:25:09.125Z,100073.94
2023-01-21T05:27:56.981Z,100073.19
2023-01-21T05:30:44.763Z,100084.22
2023-01-21T05:33:32.977Z,100083.38
2023-01-21T05:36:21.485Z,100091.84
2023-01-21T05:39:08.903Z,100089.31
2023-01-21T05:41:55.987Z,100096.91
2023-01-21T05:44:43.075Z,100095.25
2023-01-21T05:47:30.044Z,100089.34
2023-01-21T05:50:17.593Z,100098.63
2023-01-21T05:53:06.415Z,100110.47
2023-01-21T05:55:55.274Z,100107.19
2023-01-21T05:58:42.555Z,100107.28
2023-01-21T06:01:29.634Z,100093.88
2023-01-21T06:04:17.012Z,100111.66
2023-01-21T06:07:04.411Z,100110.03
2023-01-21T06:09:52.733Z,100120.22
2023-01-21T06:12:39.760Z,100121.09
2023-01-21T06:15:27.430Z,100122.81
2023-01-21T06:18:15.027Z,100125.34
2023-01-21T06:21:02.523Z,100114.41
2023-01-21T06:23:49.654Z,100132.13
2023-01-21T06:26:38.473Z,100133.88
2023-01-21T06:29:25.850Z,100144.00
2023-01-21T06:32:12.809Z,100141.53
2023-01-21T06:35:00.060Z,100151.75
2023-01-21T06:37:47.937Z,100150.16
2023-01-21T06:40:35.237Z,100148.59
2023-01-21T06:43:23.578Z,100161.31
2023-01-21T06:46:11.442Z,100160.56
2023-01-21T06:48:58.922Z,100163.16
2023-01-21T06:51:46.291Z,100158.16
2023-01-21T06:54:33.741Z,100160.75
2023-01-21T06:57:21.434Z,100164.97
2023-01-21T07:00:13.032Z,100162.50
2023-01-21T07:03:01.407Z,100183.53
2023-01-21T07:05:48.632Z,100176.09
2023-01-21T07:08:36.042Z,100173.66
2023-01-21T07:11:23.415Z,100178.75
2023-01-21T07:14:11.306Z,100177.94
2023-01-21T07:17:00.017Z,100181.28
2023-01-21T07:19:47.395Z,100183.75
2023-01-21T07:22:35.578Z,100188.81
2023-01-21T07:25:22.589Z,100193.06
2023-01-21T07:28:09.549Z,100193.91
2023-01-21T07:30:56.700Z,100194.75
2023-01-21T07:33:45.171Z,100197.31
2023-01-21T07:36:32.624Z,100189.81
2023-01-21T07:39:19.772Z,100204.19
2023-01-21T07:42:06.999Z,100198.28
2023-01-21T07:44:54.180Z,100198.34
2023-01-21T07:47:41.261Z,100206.78
2023-01-21T07:50:29.814Z,100208.47
2023-01-21T07:53:17.219Z,100212.72
2023-01-21T07:56:05.939Z,100214.44
2023-01-21T07:58:53.246Z,100218.63
2023-01-21T08:01:40.436Z,100219.44
2023-01-21T08:04:27.853Z,100220.31
2023-01-21T08:07:16.592Z,100224.47
2023-01-21T08:10:04.041Z,100225.34
2023-01-21T08:12:51.065Z,100232.09
2023-01-21T08:15:38.312Z,100228.66
2023-01-21T08:18:26.349Z,100235.38
2023-01-21T08:21:13.375Z,100229.50
2023-01-21T08:24:01.859Z,100237.00
2023-01-21T08:26:49.221Z,100240.28
2023-01-21T08:29:36.406Z,100233.50
2023-01-21T08:32:23.621Z,100225.84
2023-01-21T08:35:11.497Z,100231.69
2023-01-21T08:37:58.877Z,100237.47
2023-01-21T08:40:47.729Z,100239.91
2023-01-21T08:43:35.150Z,100248.28
2023-01-21T08:46:22.238Z,100247.38
2023-01-21T08:49:09.572Z,100247.38
2023-01-21T08:51:56.898Z,100245.66
2023-01-21T08:54:44.089Z,100254.06
2023-01-21T08:57:32.625Z,100254.88
2023-01-21T09:00:21.442Z,100254.88
2023-01-21T09:03:08.865Z,100258.13
2023-01-21T09:05:56.065Z,100263.19
2023-01-21T09:08:42.993Z,100260.63
2023-01-21T09:11:31.305Z,100274.13
2023-01-21T09:14:20.478Z,100270.72
2023-01-21T09:17:07.900Z,100273.22
2023-01-21T09:19:55.596Z,100277.47
2023-01-21T09:22:42.718Z,100285.00
2023-01-21T09:25:30.010Z,100291.69
2023-01-21T09:28:17.523Z,100297.59
2023-01-21T09:31:08.763Z,100289.13
2023-01-21T09:33:59.684Z,100299.25
2023-01-21T09:36:47.039Z,100295.06
2023-01-21T09:39:34.185Z,100295.88
2023-01-21T09:42:26.042Z,100300.94
2023-01-21T09:45:16.537Z,100300.94
2023-01-21T09:48:07.698Z,100295.88
2023-01-21T09:50:56.189Z,100298.41
2023-01-21T09:53:50.692Z,100300.09
2023-01-21T09:56:47.658Z,100302.66
2023-01-21T09:59:52.318Z,100311.91
2023-01-21T10:02:51.040Z,100307.75
2023-01-21T10:06:08.528Z,100312.81
2023-01-21T10:09:33.582Z,100309.47
2023-01-21T10:12:50.590Z,100307.03
2023-01-21T10:15:54.313Z,100298.63
2023-01-21T10:18:45.522Z,100307.06
2023-01-21T10:21:40.571Z,100308.84
2023-01-21T10:24:33.781Z,100305.50
2023-01-21T10:27:23.740Z,100307.16
2023-01-21T10:30:24.939Z,100302.94
2023-01-21T10:33:19.416Z,100307.16
2023-01-21T10:36:33.543Z,100303.81
2023-01-21T10:39:48.125Z,100303.84
2023-01-21T10:42:54.940Z,100309.78
2023-01-21T10:45:47.873Z,100306.44
2023-01-21T10:48:42.847Z,100301.38
2023-01-21T10:51:39.701Z,100301.38
2023-01-21T10:54:45.838Z,100311.44
2023-01-21T10:57:48.627Z,100303.84
2023-01-21T11:00:43.127Z,100302.94
2023-01-21T11:03:38.891Z,100298.69
2023-01-21T11:06:26.798Z,100302.84
2023-01-21T11:09:15.775Z,100312.09
2023-01-21T11:12:04.934Z,100303.59
2023-01-21T11:14:57.780Z,100301.06
2023-01-21T11:17:48.837Z,100308.66
2023-01-21T11:20:42.645Z,100314.53
2023-01-21T11:23:32.203Z,100308.63
2023-01-21T11:26:25.668Z,100307.75
2023-01-21T11:29:17.147Z,100306.00
2023-01-21T11:32:11.857Z,100299.25
2023-01-21T11:35:05.352Z,100305.16
2023-01-21T11:37:52.751Z,100300.13
2023-01-21T11:40:40.211Z,100310.28
2023-01-21T11:43:41.686Z,100301.88
2023-01-21T11:46:35.439Z,100304.47
2023-01-21T11:49:33.966Z,100308.66
2023-01-21T11:52:22.339Z,100315.47
2023-01-21T11:55:22.280Z,100307.94
2023-01-21T11:58:20.011Z,100303.78
2023-01-21T12:01:12.748Z,100302.09
2023-01-21T12:04:02.606Z,100296.28
2023-01-21T12:06:53.674Z,100294.59
2023-01-21T12:09:40.714Z,100292.06
2023-01-21T12:12:46.790Z,100292.97
2023-01-21T12:15:47.856Z,100285.50
2023-01-21T12:19:09.540Z,100296.47
2023-01-21T12:22:26.792Z,100290.56
2023-01-21T12:25:38.267Z,100284.69
2023-01-21T12:28:44.693Z,100278.81
2023-01-21T12:31:37.624Z,100290.66
2023-01-21T12:34:32.145Z,100291.50
2023-01-21T12:37:26.229Z,100307.44
2023-01-21T12:40:20.097Z,100292.28
2023-01-21T12:43:15.366Z,100291.38
2023-01-21T12:46:10.712Z,100285.44
2023-01-21T12:49:04.806Z,100297.16
2023-01-21T12:51:59.010Z,100288.72
2023-01-21T12:54:53.359Z,100292.97
2023-01-21T12:57:47.298Z,100306.44
2023-01-21T13:00:38.543Z,100296.31
2023-01-21T13:03:34.334Z,100285.34
2023-01-21T13:06:37.901Z,100298.00
2023-01-21T13:09:43.274Z,100303.09
2023-01-21T13:12:34.324Z,100301.41
2023-01-21T13:15:25.318Z,100304.78
2023-01-21T13:18:18.125Z,100298.84
2023-01-21T13:21:13.870Z,100296.31
2023-01-21T13:24:14.883Z,100297.13
2023-01-21T13:27:13.578Z,100306.38
2023-01-21T13:30:14.418Z,100294.56
2023-01-21T13:33:20.784Z,100305.47
2023-01-21T13:36:26.697Z,100308.00
2023-01-21T13:39:25.059Z,100299.53
2023-01-21T13:42:33.650Z,100300.31
2023-01-21T13:45:29.551Z,100303.59
2023-01-21T13:48:40.068Z,100303.47
2023-01-21T13:51:43.883Z,100302.66
2023-01-21T13:54:57.089Z,100302.63
2023-01-21T13:58:07.104Z,100311.84
2023-01-21T14:01:01.665Z,100310.94
2023-01-21T14:03:56.932Z,100310.03
2023-01-21T14:06:49.849Z,100315.09
2023-01-21T14:09:43.541Z,100304.16
2023-01-21T14:12:55.411Z,100315.09
2023-01-21T14:16:05.979Z,100317.63
2023-01-21T14:19:15.502Z,100310.03
2023-01-21T14:22:40.494Z,100310.94
2023-01-21T14:25:44.551Z,100311.72
2023-01-21T14:28:39.738Z,100311.63
2023-01-21T14:31:37.009Z,100313.28
2023-01-21T14:34:28.755Z,100325.06
2023-01-21T14:37:19.861Z,100328.38
2023-01-21T14:40:18.713Z,100321.66
2023-01-21T14:43:05.867Z,100319.94
2023-01-21T14:45:56.697Z,100321.59
2023-01-21T14:49:06.298Z,100318.22
2023-01-21T14:51:53.813Z,100322.38
2023-01-21T14:54:45.441Z,100317.31
2023-01-21T14:57:37.013Z,100319.03
2023-01-21T15:00:29.354Z,100325.81
2023-01-21T15:03:20.762Z,100319.84
2023-01-21T15:06:10.970Z,100319.03
2023-01-21T15:09:00.798Z,100324.91
2023-01-21T15:11:54.547Z,100319.84
2023-01-21T15:14:45.635Z,100319.03
2023-01-21T15:18:03.923Z,100322.38
2023-01-21T15:20:53.071Z,100324.91
2023-01-21T15:23:41.989Z,100326.66
2023-01-21T15:26:33.808Z,100330.91
2023-01-21T15:29:34.778Z,100334.25
2023-01-21T15:32:31.404Z,100329.19
2023-01-21T15:35:25.955Z,100326.66
2023-01-21T15:38:16.131Z,100335.03
2023-01-21T15:41:14.053Z,100329.16
2023-01-21T15:44:19.970Z,100333.34
2023-01-21T15:47:35.632Z,100333.34
2023-01-21T15:50:26.418Z,100334.16
2023-01-21T15:53:47.609Z,100332.44
2023-01-21T15:56:53.338Z,100325.69
2023-01-21T16:00:15.834Z,100326.50
2023-01-21T16:03:24.909Z,100333.22
2023-01-21T16:06:29.683Z,100324.78
2023-01-21T16:09:29.367Z,100334.84
2023-01-21T16:12:25.213Z,100336.53
2023-01-21T16:15:21.629Z,100335.66
2023-01-21T16:18:20.879Z,100339.00
2023-01-21T16:21:08.120Z,100342.34
2023-01-21T16:23:59.295Z,100346.56
2023-01-21T16:26:46.532Z,100338.91
2023-01-21T16:29:39.716Z,100343.16
2023-01-21T16:32:27.306Z,100352.47
2023-01-21T16:35:14.796Z,100348.25
2023-01-21T16:38:01.979Z,100354.16
2023-01-21T16:40:51.110Z,100358.38
2023-01-21T16:43:44.419Z,100355.03
2023-01-21T16:46:37.492Z,100355.09
2023-01-21T16:49:25.193Z,100347.59
2023-01-21T16:52:20.150Z,100360.19
2023-01-21T16:55:20.847Z,100365.28
2023-01-21T16:58:22.696Z,100349.31
2023-01-21T17:01:14.079Z,100361.13
2023-01-21T17:04:03.358Z,100364.47
2023-01-21T17:06:51.830Z,100362.81
2023-01-21T17:09:39.192Z,100365.34
2023-01-21T17:12:28.704Z,100367.06
2023-01-21T17:15:30.840Z,100362.91
2023-01-21T17:18:24.054Z,100362.91
2023-01-21T17:21:15.666Z,100357.88
2023-01-21T17:24:08.183Z,100355.34
2023-01-21T17:27:01.035Z,100360.41
2023-01-21T17:29:48.513Z,100361.25
2023-01-21T17:32:38.123Z,100362.16
2023-01-21T17:35:28.495Z,100368.06
2023-01-21T17:38:30.586Z,100375.75
2023-01-21T17:41:26.870Z,100369.03
2023-01-21T17:44:20.232Z,100374.06
2023-01-21T17:47:08.219Z,100368.22
2023-01-21T17:50:00.590Z,100374.16
2023-01-21T17:52:53.338Z,100383.47
2023-01-21T17:55:56.519Z,100376.78
2023-01-21T17:58:51.441Z,100370.91
2023-01-21T18:01:38.676Z,100382.69
2023-01-21T18:04:26.116Z,100380.22
2023-01-21T18:07:23.409Z,100377.69
2023-01-21T18:10:18.178Z,100374.38
2023-01-21T18:13:06.844Z,100375.22
2023-01-21T18:15:54.366Z,100377.75
2023-01-21T18:18:42.003Z,100376.91
2023-01-21T18:21:29.049Z,100375.25
2023-01-21T18:24:16.253Z,100374.41
2023-01-21T18:27:03.994Z,100372.69
2023-01-21T18:29:52.679Z,100363.41
2023-01-21T18:32:42.412Z,100365.88
2023-01-21T18:35:31.521Z,100365.84
2023-01-21T18:38:27.101Z,100368.28
2023-01-21T18:41:14.548Z,100382.59
2023-01-21T18:44:02.025Z,100375.81
2023-01-21T18:46:50.538Z,100374.13
2023-01-21T18:49:37.661Z,100373.22
2023-01-21T18:52:26.823Z,100374.03
2023-01-21T18:55:16.333Z,100373.22
2023-01-21T18:58:06.874Z,100378.25
2023-01-21T19:00:54.187Z,100384.13
2023-01-21T19:03:43.458Z,100382.41
2023-01-21T19:06:30.748Z,100380.66
2023-01-21T19:09:22.334Z,100379.75
2023-01-21T19:12:11.816Z,100382.22
2023-01-21T19:14:58.873Z,100379.66
2023-01-21T19:17:46.523Z,100377.09
2023-01-21T19:20:40.227Z,100377.91
2023-01-21T19:23:27.573Z,100377.03
2023-01-21T19:26:15.430Z,100382.88
2023-01-21T19:29:03.190Z,100377.75
2023-01-21T19:31:50.310Z,100378.59
2023-01-21T19:34:37.957Z,100373.47
2023-01-21T19:37:27.082Z,100378.50
2023-01-21T19:40:17.651Z,100374.28
2023-01-21T19:43:05.176Z,100364.13
2023-01-21T19:45:54.084Z,100370.00
2023-01-21T19:48:41.942Z,100370.00
2023-01-21T19:51:31.842Z,100365.75
2023-01-21T19:54:20.761Z,100368.28
2023-01-21T19:57:14.111Z,100368.28
2023-01-21T20:00:01.142Z,100377.50
2023-01-21T20:02:48.618Z,100371.63
2023-01-21T20:05:36.017Z,100373.31
2023-01-21T20:08:26.302Z,100365.72
2023-01-21T20:11:16.472Z,100364.00
2023-01-21T20:14:03.398Z,100367.34
2023-01-21T20:16:54.643Z,100363.13
2023-01-21T20:19:41.919Z,100368.97
2023-01-21T20:22:29.266Z,100363.91
2023-01-21T20:25:17.743Z,100355.47
2023-01-21T20:28:19.079Z,100352.94
2023-01-21T20:31:08.183Z,100355.47
2023-01-21T20:33:55.584Z,100346.16
2023-01-21T20:36:48.940Z,100356.28
2023-01-21T20:39:36.233Z,100366.34
2023-01-21T20:42:23.273Z,100357.91
2023-01-21T20:45:14.618Z,100360.44
2023-01-21T20:48:04.574Z,100354.50
2023-01-21T20:50:52.315Z,100359.56
2023-01-21T20:53:40.514Z,100356.22
2023-01-21T20:56:31.729Z,100361.28
2023-01-21T20:59:19.648Z,100354.50
2023-01-21T21:02:12.476Z,100360.44
2023-01-21T21:05:00.350Z,100359.56
2023-01-21T21:07:47.402Z,100348.63
2023-01-21T21:10:37.251Z,100354.56
2023-01-21T21:13:24.398Z,100355.38
2023-01-21T21:16:21.370Z,100347.78
2023-01-21T21:19:12.282Z,100342.72
2023-01-21T21:21:59.489Z,100346.16
2023-01-21T21:24:46.735Z,100341.91
2023-01-21T21:27:33.861Z,100345.25
2023-01-21T21:30:26.121Z,100336.84
2023-01-21T21:33:19.687Z,100342.72
2023-01-21T21:36:15.951Z,100332.59
2023-01-21T21:39:03.081Z,100330.97
2023-01-21T21:42:07.741Z,100332.59
2023-01-21T21:44:55.075Z,100318.31
2023-01-21T21:47:59.670Z,100330.06
2023-01-21T21:50:46.811Z,100322.47
2023-01-21T21:53:35.214Z,100326.72
2023-01-21T21:56:24.956Z,100335.13
2023-01-21T21:59:12.638Z,100319.13
2023-01-21T22:02:00.847Z,100311.53
2023-01-21T22:04:47.757Z,100309.81
2023-01-21T22:07:34.952Z,100317.41
2023-01-21T22:10:23.367Z,100315.78
2023-01-21T22:13:10.521Z,100312.34
2023-01-21T22:15:58.611Z,100314.00
2023-01-21T22:18:46.317Z,100308.13
2023-01-21T22:21:35.615Z,100307.28
2023-01-21T22:24:23.040Z,100297.16
2023-01-21T22:27:13.078Z,100297.16
2023-01-21T22:30:01.449Z,100299.66
2023-01-21T22:32:48.882Z,100297.13
2023-01-21T22:35:36.706Z,100293.75
2023-01-21T22:38:24.054Z,100292.06
2023-01-21T22:41:13.034Z,100290.34
2023-01-21T22:44:01.350Z,100289.53
2023-01-21T22:46:49.024Z,100281.94
2023-01-21T22:49:36.106Z,100278.53
2023-01-21T22:52:23.014Z,100286.13
2023-01-21T22:55:10.945Z,100273.47
2023-01-21T22:57:58.169Z,100270.94
2023-01-21T23:00:46.624Z,100270.97
2023-01-21T23:03:34.401Z,100269.28
2023-01-21T23:06:22.516Z,100256.63
2023-01-21T23:09:11.584Z,100259.19
2023-01-21T23:11:59.274Z,100260.03
2023-01-21T23:14:46.588Z,100254.97
2023-01-21T23:17:34.985Z,100257.47
2023-01-21T23:20:22.881Z,100259.94
2023-01-21T23:23:10.533Z,100254.00
2023-01-21T23:25:57.849Z,100251.47
2023-01-21T23:28:44.984Z,100248.09
2023-01-21T23:31:32.253Z,100250.63
2023-01-21T23:34:22.819Z,100234.53
2023-01-21T23:37:10.204Z,100240.44
2023-01-21T23:39:57.405Z,100238.72
2023-01-21T23:42:44.491Z,100245.47
2023-01-21T23:45:32.060Z,100245.47
2023-01-21T23:48:19.338Z,100240.41
2023-01-21T23:51:11.076Z,100238.63
2023-01-21T23:53:58.500Z,100242.84
2023-01-21T23:56:45.579Z,100233.56
2023-01-21T23:59:32.498Z,100235.25
